Time;durP1;ratioP1;P1;durP2;ratioP2;P2;SDS_P1;SDS_P2;PMS_P1;PMS_P2;Temp;Humidity;BMP_temperature;BMP_pressure;BME280_temperature;BME280_humidity;BME280_pressure;Samples;Min_cycle;Max_cycle;Signal;HPM_P1;HPM_P2
2020/12/31 00:00:24;;;;;;;25.65;15.02;;;4.90;99.90;;;;;;5092980;28;20096;-63
2020/12/31 00:02:49;;;;;;;24.35;14.82;;;4.80;99.90;;;;;;5091913;28;20031;-60
2020/12/31 00:05:15;;;;;;;28.90;15.77;;;4.80;99.90;;;;;;5074799;28;20481;-63
2020/12/31 00:07:41;;;;;;;27.70;16.20;;;4.70;99.90;;;;;;5075146;28;20042;-60
2020/12/31 00:10:07;;;;;;;27.50;16.48;;;4.70;99.90;;;;;;5093414;28;20112;-61
2020/12/31 00:12:33;;;;;;;27.05;16.73;;;4.70;99.90;;;;;;5092647;28;20020;-62
2020/12/31 00:14:59;;;;;;;22.80;14.95;;;4.60;99.90;;;;;;5094049;28;20477;-61
2020/12/31 00:17:24;;;;;;;28.40;14.85;;;4.60;99.90;;;;;;5093348;28;20420;-63
2020/12/31 00:19:50;;;;;;;21.85;14.52;;;4.50;99.90;;;;;;5093712;28;20127;-61
2020/12/31 00:22:15;;;;;;;25.00;14.23;;;4.50;99.90;;;;;;5096929;28;20028;-62
2020/12/31 00:24:41;;;;;;;23.38;13.98;;;4.50;99.90;;;;;;5101839;28;20036;-61
2020/12/31 00:27:06;;;;;;;29.42;15.15;;;4.50;99.90;;;;;;5098521;28;20012;-63
2020/12/31 00:29:32;;;;;;;24.35;13.77;;;4.50;99.90;;;;;;5092686;28;20051;-63
2020/12/31 00:31:58;;;;;;;20.70;14.23;;;4.50;99.90;;;;;;5085668;28;20025;-62
2020/12/31 00:34:23;;;;;;;23.25;14.63;;;4.40;99.90;;;;;;5092589;28;20073;-62
2020/12/31 00:36:50;;;;;;;22.85;14.23;;;4.40;99.90;;;;;;5102544;28;20103;-62
2020/12/31 00:39:15;;;;;;;26.92;14.80;;;4.40;99.90;;;;;;5076849;28;20036;-62
2020/12/31 00:41:41;;;;;;;20.75;13.93;;;4.40;99.90;;;;;;5091204;28;20036;-62
2020/12/31 00:44:07;;;;;;;23.77;14.25;;;4.30;99.90;;;;;;5094195;28;20499;-60
2020/12/31 00:46:32;;;;;;;21.95;13.80;;;4.30;99.90;;;;;;5094369;28;20020;-61
2020/12/31 00:48:58;;;;;;;22.58;13.60;;;4.30;99.90;;;;;;5092823;28;20501;-62
2020/12/31 00:51:23;;;;;;;25.65;13.75;;;4.30;99.90;;;;;;5093275;28;20458;-62
2020/12/31 00:53:49;;;;;;;23.80;13.93;;;4.40;99.90;;;;;;5094420;28;20482;-60
2020/12/31 00:56:14;;;;;;;27.40;13.52;;;4.40;99.90;;;;;;5094079;28;20509;-62
2020/12/31 00:58:40;;;;;;;25.00;14.60;;;4.40;99.90;;;;;;5099803;28;20024;-61
2020/12/31 01:01:06;;;;;;;27.50;13.85;;;4.30;99.90;;;;;;5086150;28;20022;-61
2020/12/31 01:03:32;;;;;;;23.02;13.30;;;4.40;99.90;;;;;;5098550;28;20024;-62
2020/12/31 01:05:58;;;;;;;23.88;13.88;;;4.40;99.90;;;;;;5092481;28;20153;-61
2020/12/31 01:08:25;;;;;;;24.08;13.77;;;4.40;99.90;;;;;;5097178;28;20017;-62
2020/12/31 01:10:51;;;;;;;24.17;13.52;;;4.40;99.90;;;;;;5089084;28;20060;-62
2020/12/31 01:13:16;;;;;;;22.33;13.52;;;4.40;99.90;;;;;;5080706;28;20048;-64
2020/12/31 01:15:42;;;;;;;24.35;12.80;;;4.30;99.90;;;;;;5088678;28;20032;-60
2020/12/31 01:18:08;;;;;;;21.85;13.52;;;4.40;99.90;;;;;;5097616;28;20020;-61
2020/12/31 01:20:33;;;;;;;19.83;12.65;;;4.40;99.90;;;;;;5114601;28;20050;-61
2020/12/31 01:22:59;;;;;;;21.08;12.50;;;4.40;99.90;;;;;;5089848;28;20030;-60
2020/12/31 01:25:24;;;;;;;20.10;13.30;;;4.30;99.90;;;;;;5091090;28;20031;-61
2020/12/31 01:27:50;;;;;;;19.83;12.13;;;4.30;99.90;;;;;;5086826;28;20024;-62
2020/12/31 01:30:15;;;;;;;25.48;12.98;;;4.20;99.90;;;;;;5091878;28;20369;-62
2020/12/31 01:32:41;;;;;;;26.00;14.10;;;4.30;99.90;;;;;;5073020;28;20031;-62
2020/12/31 01:35:07;;;;;;;22.38;13.65;;;4.40;99.90;;;;;;5092446;28;20568;-64
2020/12/31 01:37:32;;;;;;;25.08;13.43;;;4.30;99.90;;;;;;5099330;28;20061;-64
2020/12/31 01:39:58;;;;;;;27.23;13.60;;;4.40;99.90;;;;;;5092099;28;20080;-63
2020/12/31 01:42:24;;;;;;;23.40;12.95;;;4.40;99.90;;;;;;5091542;28;20474;-65
2020/12/31 01:44:49;;;;;;;20.30;13.27;;;4.30;99.90;;;;;;5092747;28;20078;-62
2020/12/31 01:47:15;;;;;;;23.63;13.05;;;4.30;99.90;;;;;;5073166;28;20045;-62
2020/12/31 01:49:42;;;;;;;20.50;12.75;;;4.30;99.90;;;;;;5083389;28;20089;-64
2020/12/31 01:52:08;;;;;;;20.98;13.63;;;4.30;99.90;;;;;;5096127;28;20024;-63
2020/12/31 01:54:35;;;;;;;21.15;12.73;;;4.40;99.90;;;;;;5092887;28;20028;-62
2020/12/31 01:57:00;;;;;;;24.23;13.10;;;4.40;99.90;;;;;;5091985;28;20074;-60
2020/12/31 01:59:26;;;;;;;21.52;12.45;;;4.30;99.90;;;;;;5091514;28;20016;-61
2020/12/31 02:01:53;;;;;;;24.95;13.23;;;4.30;99.90;;;;;;5091012;28;20111;-60
2020/12/31 02:04:19;;;;;;;23.70;12.63;;;4.20;99.90;;;;;;5078452;28;20020;-63
2020/12/31 02:06:46;;;;;;;23.33;12.05;;;4.30;99.90;;;;;;5105074;28;20028;-62
2020/12/31 02:09:12;;;;;;;21.42;11.93;;;4.30;99.90;;;;;;5090794;28;20056;-61
2020/12/31 02:11:38;;;;;;;18.63;11.68;;;4.40;99.90;;;;;;5090055;28;20066;-60
2020/12/31 02:14:04;;;;;;;16.33;11.65;;;4.40;99.90;;;;;;5091139;28;20059;-62
2020/12/31 02:16:34;;;;;;;21.00;11.32;;;4.40;99.90;;;;;;5071861;28;20024;-62
2020/12/31 02:19:00;;;;;;;19.70;11.68;;;4.40;99.90;;;;;;5090187;28;20028;-61
2020/12/31 02:21:28;;;;;;;21.27;11.60;;;4.40;99.90;;;;;;5072338;28;20035;-63
2020/12/31 02:23:55;;;;;;;16.17;11.35;;;4.40;99.90;;;;;;5081919;28;20036;-61
2020/12/31 02:26:26;;;;;;;20.05;11.32;;;4.40;99.90;;;;;;5088513;28;20028;-62
2020/12/31 02:28:53;;;;;;;15.93;11.05;;;4.40;99.90;;;;;;5090747;28;20028;-61
2020/12/31 02:31:20;;;;;;;17.52;11.48;;;4.30;99.90;;;;;;5095034;28;20019;-61
2020/12/31 02:33:47;;;;;;;21.27;12.38;;;4.30;99.90;;;;;;5108173;28;20108;-61
2020/12/31 02:36:14;;;;;;;20.95;12.20;;;4.40;99.90;;;;;;5098555;28;20018;-61
2020/12/31 02:38:40;;;;;;;13.90;9.98;;;4.40;99.90;;;;;;5090088;28;20032;-63
2020/12/31 02:41:06;;;;;;;17.02;11.13;;;4.40;99.90;;;;;;5083230;28;20028;-61
2020/12/31 02:43:32;;;;;;;20.42;12.60;;;4.50;99.90;;;;;;5092826;28;20035;-61
2020/12/31 02:45:58;;;;;;;15.45;10.88;;;4.40;99.90;;;;;;5059951;28;20539;-61
2020/12/31 02:48:23;;;;;;;19.85;10.75;;;4.30;99.90;;;;;;5089298;28;20056;-62
2020/12/31 02:50:49;;;;;;;16.50;10.90;;;4.20;99.90;;;;;;5085415;28;20032;-59
2020/12/31 02:53:15;;;;;;;16.02;10.65;;;4.10;99.90;;;;;;5093465;28;20477;-61
2020/12/31 02:55:40;;;;;;;15.63;9.77;;;4.20;99.90;;;;;;5092144;28;20078;-61
2020/12/31 02:58:06;;;;;;;12.57;9.35;;;4.30;99.90;;;;;;5091277;28;20031;-61
2020/12/31 03:00:31;;;;;;;15.35;9.18;;;4.30;99.90;;;;;;5092443;28;20036;-61
2020/12/31 03:02:57;;;;;;;12.20;8.98;;;4.40;99.90;;;;;;5104286;28;20024;-61
2020/12/31 03:05:22;;;;;;;11.45;6.95;;;4.40;99.90;;;;;;5097476;28;20973;-63
2020/12/31 03:07:48;;;;;;;12.88;8.40;;;4.40;99.90;;;;;;5101605;28;20485;-60
2020/12/31 03:10:13;;;;;;;14.73;8.70;;;4.40;99.90;;;;;;5106841;28;20024;-60
2020/12/31 03:12:39;;;;;;;13.65;9.45;;;4.40;99.90;;;;;;5083241;28;20020;-61
2020/12/31 03:15:19;;;;;;;12.05;9.10;;;4.40;99.90;;;;;;5103834;28;20023;-58
2020/12/31 03:17:44;;;;;;;13.75;9.40;;;4.40;99.90;;;;;;5103355;28;20539;-61
2020/12/31 03:20:10;;;;;;;12.52;9.50;;;4.40;99.90;;;;;;5104756;28;20036;-62
2020/12/31 03:22:36;;;;;;;21.55;10.45;;;4.40;99.90;;;;;;5097205;28;20178;-60
2020/12/31 03:25:03;;;;;;;18.55;10.43;;;4.40;99.90;;;;;;5082081;28;20033;-60
2020/12/31 03:27:28;;;;;;;15.18;11.18;;;4.40;99.90;;;;;;5079617;28;20111;-61
2020/12/31 03:29:54;;;;;;;15.43;11.15;;;4.40;99.90;;;;;;5099950;28;20107;-60
2020/12/31 03:32:20;;;;;;;18.13;12.25;;;4.50;99.90;;;;;;5087423;28;20587;-63
2020/12/31 03:34:46;;;;;;;16.77;11.82;;;4.50;99.90;;;;;;5095008;28;20027;-61
2020/12/31 03:37:12;;;;;;;19.38;12.30;;;4.40;99.90;;;;;;5094953;28;20028;-61
2020/12/31 03:39:37;;;;;;;20.92;12.55;;;4.40;99.90;;;;;;5092298;28;20028;-61
2020/12/31 03:42:03;;;;;;;22.52;14.02;;;4.40;99.90;;;;;;5101765;28;20031;-61
2020/12/31 03:44:29;;;;;;;21.98;13.45;;;4.30;99.90;;;;;;5102489;28;20396;-60
2020/12/31 03:46:55;;;;;;;18.58;13.38;;;4.30;99.90;;;;;;5091353;28;20099;-58
2020/12/31 03:49:20;;;;;;;21.50;12.63;;;4.30;99.90;;;;;;5103143;28;20085;-59
2020/12/31 03:51:46;;;;;;;20.25;12.27;;;4.30;99.90;;;;;;5088025;28;20032;-60
2020/12/31 03:54:11;;;;;;;21.50;13.25;;;4.30;99.90;;;;;;5095493;28;20104;-60
2020/12/31 03:56:37;;;;;;;22.77;13.60;;;4.30;99.90;;;;;;5083781;28;20032;-60
2020/12/31 03:59:06;;;;;;;30.63;13.85;;;4.20;99.90;;;;;;5096861;28;20039;-60
2020/12/31 04:01:33;;;;;;;22.73;14.27;;;4.10;99.90;;;;;;5096154;28;20058;-61
2020/12/31 04:03:59;;;;;;;27.70;16.05;;;4.20;99.90;;;;;;5100926;28;20317;-61
2020/12/31 04:06:26;;;;;;;32.05;17.42;;;4.20;99.90;;;;;;5103745;28;20068;-60
2020/12/31 04:08:51;;;;;;;34.78;17.77;;;4.20;99.90;;;;;;5103751;28;20148;-61
2020/12/31 04:11:17;;;;;;;29.20;17.30;;;4.10;99.90;;;;;;5109688;28;20479;-60
2020/12/31 04:13:42;;;;;;;32.90;18.25;;;4.10;99.90;;;;;;5108557;28;20019;-62
2020/12/31 04:16:08;;;;;;;30.02;17.60;;;4.10;99.90;;;;;;5089160;28;20027;-61
2020/12/31 04:18:34;;;;;;;33.90;19.92;;;4.10;99.90;;;;;;5103023;28;20095;-61
2020/12/31 04:20:59;;;;;;;30.23;18.48;;;4.10;99.90;;;;;;5124599;22;20051;-60
2020/12/31 04:23:25;;;;;;;32.83;18.92;;;4.20;99.90;;;;;;5114936;28;20131;-60
2020/12/31 04:25:51;;;;;;;32.28;18.55;;;4.10;99.90;;;;;;5100141;28;20051;-60
2020/12/31 04:28:17;;;;;;;31.13;17.50;;;4.10;99.90;;;;;;5114651;28;20121;-60
2020/12/31 04:30:47;;;;;;;31.23;18.27;;;4.10;99.90;;;;;;5098180;28;20420;-60
2020/12/31 04:33:12;;;;;;;34.55;18.75;;;4.00;99.90;;;;;;5111646;28;20043;-59
2020/12/31 04:35:38;;;;;;;28.48;15.68;;;4.00;99.90;;;;;;5107114;28;20080;-62
2020/12/31 04:38:04;;;;;;;34.20;17.23;;;4.10;99.90;;;;;;5109656;28;20077;-59
2020/12/31 04:40:31;;;;;;;29.25;16.75;;;4.10;99.90;;;;;;5104960;28;20023;-59
2020/12/31 04:42:57;;;;;;;29.63;14.63;;;4.10;99.90;;;;;;5104155;28;20035;-59
2020/12/31 04:45:23;;;;;;;31.30;16.17;;;4.00;99.90;;;;;;5107495;28;20020;-58
2020/12/31 04:48:06;;;;;;;27.75;16.08;;;3.90;99.90;;;;;;5101776;28;20452;-59
2020/12/31 04:50:37;;;;;;;31.08;15.32;;;3.90;99.90;;;;;;5105713;28;20024;-59
2020/12/31 04:53:10;;;;;;;27.65;15.88;;;4.00;99.90;;;;;;5098156;28;20095;-59
2020/12/31 04:55:46;;;;;;;25.83;15.38;;;4.10;99.90;;;;;;5095653;28;20024;-58
2020/12/31 04:58:15;;;;;;;30.60;15.55;;;4.20;99.90;;;;;;5095818;28;20024;-60
2020/12/31 05:00:42;;;;;;;28.33;15.82;;;4.30;99.90;;;;;;5097996;28;20513;-60
2020/12/31 05:03:09;;;;;;;37.25;15.77;;;4.20;99.90;;;;;;5095185;28;20024;-59
2020/12/31 05:05:35;;;;;;;27.83;15.38;;;4.10;99.90;;;;;;5089308;28;20035;-61
2020/12/31 05:08:02;;;;;;;29.33;15.98;;;4.10;99.90;;;;;;5105537;28;20016;-62
2020/12/31 05:10:28;;;;;;;31.02;16.80;;;4.10;99.90;;;;;;5092878;28;20019;-60
2020/12/31 05:12:59;;;;;;;30.30;14.82;;;4.10;99.90;;;;;;5093270;28;20020;-58
2020/12/31 05:15:42;;;;;;;28.70;15.50;;;4.20;99.90;;;;;;5100936;28;20078;-59
2020/12/31 05:18:27;;;;;;;44.38;16.50;;;4.30;99.90;;;;;;5102387;28;20073;-59
2020/12/31 05:20:55;;;;;;;25.08;14.27;;;4.20;99.90;;;;;;5104033;28;20435;-59
2020/12/31 05:23:26;;;;;;;28.67;14.93;;;4.10;99.90;;;;;;5099372;28;20434;-60
2020/12/31 05:25:52;;;;;;;22.33;14.10;;;4.10;99.90;;;;;;5093969;28;20135;-61
2020/12/31 05:28:21;;;;;;;31.15;16.70;;;4.10;99.90;;;;;;5104491;28;20038;-60
2020/12/31 05:30:49;;;;;;;29.35;15.27;;;4.10;99.90;;;;;;5102164;28;20103;-60
2020/12/31 05:33:30;;;;;;;29.25;17.08;;;4.10;99.90;;;;;;5108750;28;20034;-59
2020/12/31 05:36:22;;;;;;;34.67;18.52;;;4.10;99.90;;;;;;5089683;28;20024;-59
2020/12/31 05:39:06;;;;;;;29.75;15.63;;;4.10;99.90;;;;;;5104511;28;20027;-59
2020/12/31 05:41:33;;;;;;;33.72;17.38;;;4.00;99.90;;;;;;5104386;28;20104;-59
2020/12/31 05:44:06;;;;;;;30.33;16.20;;;4.00;99.90;;;;;;5108190;28;20031;-60
2020/12/31 05:46:33;;;;;;;31.85;16.90;;;4.00;99.90;;;;;;5109867;28;20020;-60
2020/12/31 05:49:08;;;;;;;30.13;16.88;;;4.20;99.90;;;;;;5108006;28;20016;-60
2020/12/31 05:51:41;;;;;;;34.58;16.85;;;4.10;99.90;;;;;;5078783;28;20047;-62
2020/12/31 05:54:11;;;;;;;30.95;17.80;;;4.20;99.90;;;;;;5100977;28;20032;-59
2020/12/31 05:56:38;;;;;;;31.77;17.25;;;4.20;99.90;;;;;;5098464;28;20024;-59
2020/12/31 05:59:16;;;;;;;34.20;17.67;;;4.10;99.90;;;;;;5100323;28;20592;-59
2020/12/31 06:01:57;;;;;;;33.22;17.85;;;4.10;99.90;;;;;;5101397;28;20503;-59
2020/12/31 06:04:34;;;;;;;34.30;19.85;;;4.10;99.90;;;;;;5092551;28;20118;-58
2020/12/31 06:07:04;;;;;;;31.73;17.63;;;4.10;99.90;;;;;;5101308;28;20076;-60
2020/12/31 06:09:32;;;;;;;36.08;17.35;;;4.10;99.90;;;;;;5095683;28;20060;-59
2020/12/31 06:12:08;;;;;;;40.70;20.33;;;4.10;99.90;;;;;;5106153;28;20020;-58
2020/12/31 06:14:35;;;;;;;36.28;19.75;;;4.20;99.90;;;;;;5098492;28;20438;-60
2020/12/31 06:17:02;;;;;;;37.42;18.60;;;4.20;99.90;;;;;;5097766;28;20062;-60
2020/12/31 06:19:29;;;;;;;37.80;19.88;;;4.10;99.90;;;;;;5095876;28;20383;-59
2020/12/31 06:22:03;;;;;;;38.38;19.58;;;4.10;99.90;;;;;;5084195;28;20398;-60
2020/12/31 06:24:45;;;;;;;42.40;20.55;;;4.30;99.90;;;;;;5076695;28;20103;-59
2020/12/31 06:27:11;;;;;;;38.95;20.63;;;4.20;99.90;;;;;;5076368;28;20432;-58
2020/12/31 06:29:50;;;;;;;44.47;21.90;;;4.20;99.90;;;;;;5074729;28;20077;-62
2020/12/31 06:32:25;;;;;;;44.10;22.50;;;4.20;99.90;;;;;;5062356;28;20166;-59
2020/12/31 06:34:51;;;;;;;39.03;21.25;;;4.20;99.90;;;;;;5081776;28;20025;-60
2020/12/31 06:37:17;;;;;;;40.70;21.75;;;4.30;99.90;;;;;;5085238;28;20532;-61
2020/12/31 06:39:43;;;;;;;37.90;21.42;;;4.30;99.90;;;;;;5075658;28;20074;-59
2020/12/31 06:42:08;;;;;;;36.75;20.48;;;4.30;99.90;;;;;;5084849;28;20028;-61
2020/12/31 06:44:34;;;;;;;36.28;19.85;;;4.40;99.90;;;;;;5079966;28;20048;-59
2020/12/31 06:47:00;;;;;;;38.75;20.45;;;4.40;99.90;;;;;;5086759;28;20474;-59
2020/12/31 06:50:01;;;;;;;38.55;21.40;;;4.40;99.90;;;;;;5105220;28;20016;-60
2020/12/31 06:52:27;;;;;;;43.08;21.67;;;4.40;99.90;;;;;;4984718;28;20531;-60
2020/12/31 06:54:52;;;;;;;34.22;20.10;;;4.40;99.90;;;;;;5076426;28;20233;-61
2020/12/31 06:57:37;;;;;;;39.35;20.13;;;4.40;99.90;;;;;;5078729;28;20037;-63
2020/12/31 07:00:05;;;;;;;45.67;21.38;;;4.40;99.90;;;;;;5067910;28;20034;-60
2020/12/31 07:02:43;;;;;;;42.53;21.13;;;4.30;99.90;;;;;;5110359;28;20172;-60
2020/12/31 07:05:22;;;;;;;40.25;20.83;;;4.20;99.90;;;;;;5083120;28;20122;-59
2020/12/31 07:07:47;;;;;;;45.78;21.92;;;4.20;99.90;;;;;;5108604;28;20035;-59
2020/12/31 07:10:13;;;;;;;46.60;22.17;;;4.20;99.90;;;;;;5108193;28;20012;-59
2020/12/31 07:12:47;;;;;;;41.80;20.42;;;4.20;99.90;;;;;;5095267;28;20030;-59
2020/12/31 07:15:15;;;;;;;47.67;23.55;;;4.30;99.90;;;;;;5086416;28;20020;-59
2020/12/31 07:17:47;;;;;;;41.40;22.23;;;4.20;99.90;;;;;;5080192;28;20024;-60
2020/12/31 07:20:14;;;;;;;47.22;22.77;;;4.20;99.90;;;;;;5086715;28;20059;-59
2020/12/31 07:22:40;;;;;;;50.47;23.63;;;4.20;99.90;;;;;;5073248;28;20032;-60
2020/12/31 07:25:11;;;;;;;40.78;19.23;;;4.20;99.90;;;;;;5089232;28;20417;-59
2020/12/31 07:27:41;;;;;;;38.83;21.90;;;4.20;99.90;;;;;;5078538;28;20024;-60
2020/12/31 07:30:07;;;;;;;51.90;22.30;;;4.30;99.90;;;;;;5094205;28;20035;-58
2020/12/31 07:32:58;;;;;;;46.08;23.10;;;4.20;99.90;;;;;;5093718;28;20024;-59
2020/12/31 07:35:38;;;;;;;49.60;21.83;;;4.20;99.90;;;;;;5095498;28;20036;-58
2020/12/31 07:38:09;;;;;;;42.20;21.38;;;4.20;99.90;;;;;;5089769;28;20059;-59
2020/12/31 07:40:45;;;;;;;50.70;23.63;;;4.20;99.90;;;;;;5073255;28;20566;-60
2020/12/31 07:43:22;;;;;;;53.58;23.80;;;4.20;99.90;;;;;;5106014;28;20035;-60
2020/12/31 07:45:49;;;;;;;42.67;21.92;;;4.10;99.90;;;;;;5091407;28;20452;-58
2020/12/31 07:48:15;;;;;;;43.05;21.98;;;4.00;99.90;;;;;;5096079;28;20469;-60
2020/12/31 07:50:44;;;;;;;50.47;24.00;;;4.00;99.90;;;;;;5082527;28;20029;-60
2020/12/31 07:53:11;;;;;;;46.78;22.58;;;4.10;99.90;;;;;;5085510;28;20020;-60
2020/12/31 07:55:38;;;;;;;44.45;22.58;;;4.10;99.90;;;;;;5117721;28;20031;-59
2020/12/31 07:58:07;;;;;;;49.08;24.27;;;4.10;99.90;;;;;;5109336;28;20050;-60
2020/12/31 08:00:33;;;;;;;49.08;23.70;;;4.20;99.90;;;;;;5101997;28;20517;-60
2020/12/31 08:02:59;;;;;;;48.30;23.92;;;4.20;99.90;;;;;;5105069;28;20168;-64
2020/12/31 08:05:26;;;;;;;49.45;23.80;;;4.20;99.90;;;;;;5107446;28;20039;-59
2020/12/31 08:07:56;;;;;;;48.85;23.30;;;4.30;99.90;;;;;;5110151;28;20137;-61
2020/12/31 08:10:23;;;;;;;46.60;22.73;;;4.20;99.90;;;;;;5098309;28;20016;-61
2020/12/31 08:12:54;;;;;;;53.17;25.20;;;4.20;99.90;;;;;;5094248;28;20024;-59
2020/12/31 08:15:21;;;;;;;48.97;24.65;;;4.20;99.90;;;;;;5080270;28;20027;-60
2020/12/31 08:17:52;;;;;;;47.70;23.90;;;4.20;99.90;;;;;;5094148;28;20027;-59
2020/12/31 08:20:19;;;;;;;50.28;24.73;;;4.20;99.90;;;;;;5091637;28;20082;-59
2020/12/31 08:22:53;;;;;;;50.10;24.10;;;4.20;99.90;;;;;;5092969;28;20046;-61
2020/12/31 08:25:27;;;;;;;45.50;24.17;;;4.30;99.90;;;;;;5104613;28;20486;-60
2020/12/31 08:27:55;;;;;;;46.30;24.67;;;4.30;99.90;;;;;;5082998;28;20073;-60
2020/12/31 08:30:22;;;;;;;50.63;25.15;;;4.30;99.90;;;;;;5093056;28;20024;-60
2020/12/31 08:32:50;;;;;;;55.92;25.80;;;4.30;99.90;;;;;;5092954;28;20054;-59
2020/12/31 08:35:43;;;;;;;49.22;24.88;;;4.30;99.90;;;;;;5088302;28;20108;-60
2020/12/31 08:38:13;;;;;;;47.10;23.35;;;4.40;99.90;;;;;;5090706;28;20043;-58
2020/12/31 08:40:42;;;;;;;51.20;24.73;;;4.40;99.90;;;;;;5098301;28;20111;-59
2020/12/31 08:43:22;;;;;;;38.10;21.75;;;4.50;99.90;;;;;;5102367;28;20020;-60
2020/12/31 08:45:49;;;;;;;48.58;24.60;;;4.40;99.90;;;;;;5085379;28;20028;-59
2020/12/31 08:48:20;;;;;;;48.50;24.27;;;4.50;99.90;;;;;;5108674;28;20020;-59
2020/12/31 08:51:11;;;;;;;48.97;24.88;;;4.40;99.90;;;;;;5105858;28;20107;-59
2020/12/31 08:53:53;;;;;;;50.05;24.23;;;4.40;99.90;;;;;;5096707;28;20027;-61
2020/12/31 08:56:20;;;;;;;45.85;23.88;;;4.30;99.90;;;;;;5096506;28;20420;-59
2020/12/31 08:58:46;;;;;;;47.20;24.02;;;4.30;99.90;;;;;;5092112;28;20032;-59
2020/12/31 09:01:23;;;;;;;50.58;24.52;;;4.30;99.90;;;;;;5083614;28;20031;-59
2020/12/31 09:03:48;;;;;;;40.05;21.92;;;4.30;99.90;;;;;;5091941;28;20031;-59
2020/12/31 09:06:24;;;;;;;47.50;25.30;;;4.40;99.90;;;;;;5081133;28;20032;-61
2020/12/31 09:08:50;;;;;;;46.00;23.45;;;4.40;99.90;;;;;;5092505;28;20359;-60
2020/12/31 09:11:24;;;;;;;51.97;24.83;;;4.40;99.90;;;;;;5093097;28;20035;-60
2020/12/31 09:13:50;;;;;;;44.60;22.75;;;4.40;99.90;;;;;;5109286;28;20389;-61
2020/12/31 09:16:16;;;;;;;45.70;23.73;;;4.30;99.90;;;;;;5104700;28;20024;-59
2020/12/31 09:18:42;;;;;;;48.00;23.67;;;4.30;99.90;;;;;;5109215;28;20055;-60
2020/12/31 09:21:09;;;;;;;44.00;22.75;;;4.30;99.90;;;;;;5108809;28;20118;-59
2020/12/31 09:23:36;;;;;;;48.67;23.95;;;4.30;99.90;;;;;;5091782;28;20036;-58
2020/12/31 09:26:02;;;;;;;39.63;21.10;;;4.40;99.90;;;;;;5092391;28;20119;-60
2020/12/31 09:28:28;;;;;;;39.60;22.65;;;4.40;99.90;;;;;;5093929;28;20012;-60
2020/12/31 09:31:13;;;;;;;44.20;21.48;;;4.30;99.90;;;;;;5093360;28;20035;-59
2020/12/31 09:33:38;;;;;;;44.95;21.90;;;4.30;99.90;;;;;;5107877;28;20011;-60
2020/12/31 09:36:04;;;;;;;42.17;22.13;;;4.30;99.90;;;;;;5103847;28;20143;-60
2020/12/31 09:38:29;;;;;;;34.60;19.00;;;4.20;99.90;;;;;;5092951;28;20052;-59
2020/12/31 09:40:55;;;;;;;36.72;20.10;;;4.30;99.90;;;;;;5091814;28;20028;-61
2020/12/31 09:43:20;;;;;;;40.38;21.70;;;4.20;99.90;;;;;;5084959;28;20031;-60
2020/12/31 09:45:46;;;;;;;41.55;22.13;;;4.30;99.90;;;;;;5097806;28;20481;-59
2020/12/31 09:48:11;;;;;;;43.83;20.77;;;4.40;99.90;;;;;;5104979;28;20512;-60
2020/12/31 09:50:37;;;;;;;46.80;23.50;;;4.40;99.90;;;;;;5095817;28;20028;-58
2020/12/31 09:53:03;;;;;;;40.20;21.63;;;4.40;99.90;;;;;;5093494;28;20027;-60
2020/12/31 09:55:28;;;;;;;46.38;23.00;;;4.40;99.90;;;;;;5108080;28;20024;-60
2020/12/31 09:57:54;;;;;;;44.00;23.05;;;4.50;99.90;;;;;;5109748;28;20393;-61
2020/12/31 10:00:20;;;;;;;52.38;22.65;;;4.60;99.90;;;;;;5098514;28;20148;-59
2020/12/31 10:02:45;;;;;;;47.35;22.63;;;4.60;99.90;;;;;;5104778;28;20038;-59
2020/12/31 10:05:11;;;;;;;39.83;22.30;;;4.50;99.90;;;;;;5098657;28;20031;-59
2020/12/31 10:07:36;;;;;;;40.90;21.35;;;4.40;99.90;;;;;;5098581;28;20027;-60
2020/12/31 10:10:03;;;;;;;45.97;21.50;;;4.40;99.90;;;;;;5090636;28;20016;-59
2020/12/31 10:12:29;;;;;;;41.83;22.60;;;4.30;99.90;;;;;;5102822;28;20024;-58
2020/12/31 10:14:56;;;;;;;33.53;19.27;;;4.30;99.90;;;;;;5112377;28;20024;-59
2020/12/31 10:17:22;;;;;;;40.17;22.75;;;4.30;99.90;;;;;;5104137;28;20390;-61
2020/12/31 10:19:48;;;;;;;38.63;19.45;;;4.30;99.90;;;;;;5133714;22;20412;-62
2020/12/31 10:22:14;;;;;;;47.75;23.63;;;4.30;99.90;;;;;;5175673;27;20014;-64
2020/12/31 10:24:40;;;;;;;40.20;21.20;;;4.40;99.90;;;;;;5163964;27;20059;-63
2020/12/31 10:27:06;;;;;;;39.67;22.33;;;4.40;99.90;;;;;;5163314;27;20030;-63
2020/12/31 10:29:31;;;;;;;37.03;20.70;;;4.50;99.90;;;;;;5156844;27;20119;-64
2020/12/31 10:31:57;;;;;;;41.67;21.63;;;4.60;99.90;;;;;;5173384;27;20406;-62
2020/12/31 10:34:24;;;;;;;43.15;21.38;;;4.60;99.90;;;;;;5164230;27;20023;-64
2020/12/31 10:36:54;;;;;;;39.08;21.63;;;4.60;99.90;;;;;;5152676;27;20459;-61
2020/12/31 10:39:20;;;;;;;43.65;21.70;;;4.70;99.90;;;;;;5140619;27;20037;-63
2020/12/31 10:41:47;;;;;;;43.25;22.23;;;4.70;99.90;;;;;;5153523;27;20037;-62
2020/12/31 10:44:13;;;;;;;44.80;22.50;;;4.50;99.90;;;;;;5152013;27;20026;-64
2020/12/31 10:46:39;;;;;;;39.55;21.27;;;4.40;99.90;;;;;;5134774;27;20204;-64
2020/12/31 10:49:05;;;;;;;37.25;21.27;;;4.40;99.90;;;;;;5153413;27;20042;-62
2020/12/31 10:51:38;;;;;;;38.60;22.02;;;4.50;99.90;;;;;;5152343;27;20026;-63
2020/12/31 10:54:04;;;;;;;38.25;21.08;;;4.70;99.90;;;;;;5150978;27;20319;-64
2020/12/31 10:56:31;;;;;;;43.15;22.02;;;4.60;99.90;;;;;;5138464;27;20025;-62
2020/12/31 10:58:57;;;;;;;41.72;21.17;;;4.60;99.90;;;;;;5151282;27;20101;-64
2020/12/31 11:01:22;;;;;;;40.20;20.63;;;4.60;99.90;;;;;;5155359;27;20060;-63
2020/12/31 11:03:48;;;;;;;42.83;23.23;;;4.50;99.90;;;;;;5151877;27;20026;-63
2020/12/31 11:06:21;;;;;;;41.60;23.48;;;4.40;99.90;;;;;;5148994;27;20087;-62
2020/12/31 11:08:47;;;;;;;48.92;22.75;;;4.10;99.90;;;;;;5141019;27;20023;-63
2020/12/31 11:11:24;;;;;;;42.40;22.35;;;4.10;99.90;;;;;;5132597;27;20038;-62
2020/12/31 11:13:50;;;;;;;44.55;25.33;;;4.10;99.90;;;;;;5150668;27;20019;-63
2020/12/31 11:16:16;;;;;;;47.30;24.98;;;4.20;99.90;;;;;;5133396;27;20029;-62
2020/12/31 11:18:42;;;;;;;40.72;22.25;;;4.20;99.90;;;;;;5153475;27;20102;-63
2020/12/31 11:21:08;;;;;;;43.22;21.65;;;4.30;99.90;;;;;;5156308;27;20630;-63
2020/12/31 11:23:35;;;;;;;41.40;22.52;;;4.50;99.90;;;;;;5150805;27;20479;-63
2020/12/31 11:26:00;;;;;;;38.75;20.90;;;4.50;99.90;;;;;;5154306;27;20030;-63
2020/12/31 11:28:26;;;;;;;42.65;22.63;;;4.40;99.90;;;;;;5160121;27;20026;-64
2020/12/31 11:30:52;;;;;;;41.70;21.33;;;4.30;99.90;;;;;;5156207;27;20016;-63
2020/12/31 11:33:17;;;;;;;42.17;22.92;;;4.20;99.90;;;;;;5160266;27;20472;-68
2020/12/31 11:35:43;;;;;;;39.60;21.17;;;4.20;99.90;;;;;;5153734;27;20023;-64
2020/12/31 11:38:09;;;;;;;43.80;22.58;;;4.20;99.90;;;;;;5137217;27;20071;-64
2020/12/31 11:40:35;;;;;;;35.25;20.75;;;4.10;99.90;;;;;;5154490;27;20027;-64
2020/12/31 11:43:00;;;;;;;43.28;21.70;;;4.20;99.90;;;;;;5157883;27;20484;-64
2020/12/31 11:45:26;;;;;;;39.90;22.45;;;4.20;99.90;;;;;;5152518;27;20076;-64
2020/12/31 11:47:51;;;;;;;41.78;21.75;;;4.20;99.90;;;;;;5160346;27;20050;-63
2020/12/31 11:50:17;;;;;;;47.95;22.70;;;4.10;99.90;;;;;;5157145;27;20057;-65
2020/12/31 11:52:43;;;;;;;43.28;23.30;;;4.10;99.90;;;;;;5154611;27;20029;-64
2020/12/31 11:55:09;;;;;;;45.53;24.58;;;4.20;99.90;;;;;;5148364;27;20023;-63
2020/12/31 11:57:35;;;;;;;44.95;24.10;;;4.20;99.90;;;;;;5136970;27;20027;-63
2020/12/31 12:00:00;;;;;;;51.88;26.05;;;4.40;99.90;;;;;;5154470;27;20341;-62
2020/12/31 12:02:26;;;;;;;46.78;24.42;;;4.40;99.90;;;;;;5155789;27;20064;-63
2020/12/31 12:04:51;;;;;;;46.55;24.92;;;4.50;99.90;;;;;;5155639;27;20030;-63
2020/12/31 12:07:17;;;;;;;44.45;24.38;;;4.60;99.90;;;;;;5133095;27;20537;-64
2020/12/31 12:09:44;;;;;;;45.95;22.67;;;4.40;99.90;;;;;;5151067;27;20023;-62
2020/12/31 12:12:10;;;;;;;48.88;25.15;;;4.30;99.90;;;;;;5154845;27;20357;-62
2020/12/31 12:14:35;;;;;;;51.20;25.13;;;4.10;99.90;;;;;;5154547;27;20492;-63
2020/12/31 12:17:01;;;;;;;52.90;25.25;;;4.10;99.90;;;;;;5158409;27;20065;-63
2020/12/31 12:19:28;;;;;;;47.58;25.85;;;4.10;99.90;;;;;;5160200;27;20070;-63
2020/12/31 12:22:00;;;;;;;50.25;24.30;;;4.20;99.90;;;;;;5159811;27;20052;-63
2020/12/31 12:24:27;;;;;;;49.30;25.92;;;4.20;99.90;;;;;;5156251;27;20488;-64
2020/12/31 12:26:53;;;;;;;48.17;25.42;;;4.10;99.90;;;;;;5158505;27;20487;-65
2020/12/31 12:29:19;;;;;;;49.53;26.08;;;4.00;99.90;;;;;;5156772;27;20023;-63
2020/12/31 12:31:44;;;;;;;54.53;26.25;;;4.00;99.90;;;;;;5157925;27;20053;-64
2020/12/31 12:34:10;;;;;;;45.63;23.95;;;3.90;99.90;;;;;;5156041;27;20022;-63
2020/12/31 12:36:36;;;;;;;48.17;23.33;;;3.90;99.90;;;;;;5163936;27;20482;-63
2020/12/31 12:39:04;;;;;;;40.15;21.08;;;3.90;99.90;;;;;;5147767;27;20030;-63
2020/12/31 12:41:29;;;;;;;36.30;18.85;;;3.90;99.90;;;;;;5155089;27;20015;-63